Time;durP1;ratioP1;P1;durP2;ratioP2;P2;SDS_P1;SDS_P2;PMS_P1;PMS_P2;Temp;Humidity;BMP_temperature;BMP_pressure;BME280_temperature;BME280_humidity;BME280_pressure;Samples;Min_cycle;Max_cycle;Signal;HPM_P1;HPM_P2
2023/09/02 00:00:05;;;;;;;4.00;3.60;;;;;;;22.19;49.95;99619.19;5111568;28;20020;-75
2023/09/02 00:02:31;;;;;;;7.57;4.65;;;;;;;22.19;50.24;99620.00;5093112;28;20062;-75
2023/09/02 00:04:57;;;;;;;12.85;4.82;;;;;;;22.41;49.81;99615.06;5111408;28;20095;-75
2023/09/02 00:07:22;;;;;;;10.60;4.28;;;;;;;22.69;49.09;99624.72;5093468;28;20539;-75
2023/09/02 00:09:48;;;;;;;11.00;4.55;;;;;;;22.72;49.04;99626.72;5093221;28;20522;-75
2023/09/02 00:12:13;;;;;;;8.60;3.92;;;;;;;22.65;49.72;99628.81;5111126;28;20526;-75
2023/09/02 00:14:39;;;;;;;6.85;4.32;;;;;;;22.44;50.19;99624.78;5093091;28;20015;-75
2023/09/02 00:17:04;;;;;;;8.32;4.07;;;;;;;22.27;50.73;99635.06;5093002;28;20412;-76
2023/09/02 00:19:30;;;;;;;15.43;5.03;;;;;;;22.48;50.26;99630.47;5111171;28;20020;-76
2023/09/02 00:21:55;;;;;;;5.45;4.38;;;;;;;22.55;50.23;99627.66;5093087;28;20473;-75
2023/09/02 00:24:21;;;;;;;6.80;4.65;;;;;;;22.78;49.71;99621.41;5111155;28;20047;-75
2023/09/02 00:26:47;;;;;;;11.60;4.13;;;;;;;23.19;49.15;99634.22;5111187;28;20049;-75
2023/09/02 00:29:12;;;;;;;11.02;4.15;;;;;;;23.18;48.64;99624.03;5111094;28;20027;-75
2023/09/02 00:31:38;;;;;;;12.25;4.53;;;;;;;23.02;49.27;99624.53;5092972;28;20019;-75
2023/09/02 00:34:03;;;;;;;10.93;5.78;;;;;;;22.62;50.52;99627.59;5110992;28;20110;-75
2023/09/02 00:36:30;;;;;;;6.38;3.80;;;;;;;23.00;49.33;99627.81;5111866;28;20023;-75
2023/09/02 00:38:59;;;;;;;9.20;4.82;;;;;;;23.09;49.40;99621.66;5115081;28;20030;-75
2023/09/02 00:41:46;;;;;;;6.82;4.82;;;;;;;23.19;49.15;99627.72;5096755;28;20068;-75
2023/09/02 00:44:12;;;;;;;5.30;4.47;;;;;;;23.07;49.40;99629.81;5096637;28;20106;-75
2023/09/02 00:46:38;;;;;;;7.10;4.40;;;;;;;23.10;49.30;99628.97;5115036;28;20099;-75
2023/09/02 00:49:03;;;;;;;6.63;4.30;;;;;;;23.04;49.56;99627.78;5114777;28;20036;-75
2023/09/02 00:51:29;;;;;;;7.32;5.30;;;;;;;22.89;49.68;99626.25;5114925;28;20023;-75
2023/09/02 00:53:55;;;;;;;17.17;4.90;;;;;;;22.70;50.48;99626.34;5096306;28;20024;-75
2023/09/02 00:56:22;;;;;;;9.13;5.15;;;;;;;23.20;49.20;99632.19;5114817;28;20023;-75
2023/09/02 00:58:47;;;;;;;13.27;4.63;;;;;;;23.25;49.02;99631.72;5114470;28;20039;-75
2023/09/02 01:01:13;;;;;;;5.68;4.28;;;;;;;22.73;50.36;99633.25;5096508;28;20034;-75
2023/09/02 01:03:40;;;;;;;6.20;3.95;;;;;;;23.14;49.39;99632.59;5114581;28;20022;-75
2023/09/02 01:06:07;;;;;;;11.98;4.70;;;;;;;23.44;48.75;99635.31;5115310;28;20110;-75
2023/09/02 01:08:33;;;;;;;5.68;4.40;;;;;;;23.52;48.58;99634.00;5096118;28;20026;-75
2023/09/02 01:10:59;;;;;;;10.20;4.95;;;;;;;23.29;48.91;99635.41;5114445;28;20035;-75
2023/09/02 01:13:26;;;;;;;7.28;4.60;;;;;;;22.84;50.13;99636.03;5095999;28;20484;-75
2023/09/02 01:15:54;;;;;;;8.25;4.90;;;;;;;23.12;49.44;99646.47;5114426;28;20038;-75
2023/09/02 01:18:21;;;;;;;7.50;4.15;;;;;;;23.08;49.44;99634.28;5095960;28;20102;-75
2023/09/02 01:21:10;;;;;;;11.48;4.50;;;;;;;23.19;49.37;99639.13;5095989;28;20028;-75
2023/09/02 01:24:10;;;;;;;12.50;5.82;;;;;;;23.14;49.49;99644.00;5114293;28;20127;-75
2023/09/02 01:26:54;;;;;;;16.08;6.05;;;;;;;23.25;49.51;99643.13;5114224;28;20404;-75
2023/09/02 01:29:22;;;;;;;6.80;5.43;;;;;;;23.24;49.20;99642.34;5114051;28;20023;-75
2023/09/02 01:31:48;;;;;;;7.20;4.53;;;;;;;23.20;49.41;99632.19;5114119;28;20423;-75
2023/09/02 01:34:16;;;;;;;5.10;4.60;;;;;;;23.37;48.69;99639.81;5095565;28;20031;-75
2023/09/02 01:36:43;;;;;;;6.25;4.75;;;;;;;23.47;48.39;99637.31;5113971;28;20529;-75
2023/09/02 01:39:10;;;;;;;11.00;4.97;;;;;;;23.42;48.07;99625.13;5095594;28;20027;-75
2023/09/02 01:41:36;;;;;;;8.40;5.25;;;;;;;23.47;48.45;99634.44;5113909;28;20535;-75
2023/09/02 01:44:03;;;;;;;6.28;4.68;;;;;;;23.58;47.88;99632.31;5095487;28;20027;-75
2023/09/02 01:46:28;;;;;;;7.63;4.93;;;;;;;23.72;47.98;99636.28;5095562;28;20031;-75
2023/09/02 01:48:54;;;;;;;6.00;5.40;;;;;;;23.68;47.83;99628.56;5094754;28;20416;-75
2023/09/02 01:51:20;;;;;;;9.20;5.28;;;;;;;23.45;48.65;99622.66;5113749;28;20096;-75
2023/09/02 01:53:46;;;;;;;6.13;5.07;;;;;;;23.16;49.36;99637.91;5095160;28;20030;-75
2023/09/02 01:56:12;;;;;;;7.00;4.80;;;;;;;23.07;49.55;99632.66;5095391;28;20027;-75
2023/09/02 01:58:37;;;;;;;10.05;4.97;;;;;;;23.23;49.29;99634.19;5095032;28;20052;-75
2023/09/02 02:01:03;;;;;;;8.63;4.95;;;;;;;23.23;48.91;99629.31;5113554;28;20031;-75
2023/09/02 02:03:37;;;;;;;11.95;5.10;;;;;;;23.35;48.89;99633.72;5113535;28;20051;-75
2023/09/02 02:06:07;;;;;;;10.70;4.60;;;;;;;23.25;49.04;99641.09;5095185;28;20073;-75
2023/09/02 02:08:44;;;;;;;7.27;5.77;;;;;;;23.27;49.20;99641.53;5095184;28;20471;-75
2023/09/02 02:11:11;;;;;;;8.00;4.95;;;;;;;23.32;49.21;99634.56;5113392;28;20419;-75
2023/09/02 02:13:38;;;;;;;13.98;6.63;;;;;;;23.44;49.20;99643.84;5094869;28;20022;-75
2023/09/02 02:16:04;;;;;;;12.65;5.22;;;;;;;23.49;48.98;99640.53;5113235;28;20496;-75
2023/09/02 02:18:29;;;;;;;9.27;5.90;;;;;;;23.56;48.72;99640.50;5094808;28;20020;-75
2023/09/02 02:21:03;;;;;;;12.30;6.68;;;;;;;23.27;49.52;99640.69;5113071;28;20026;-75
2023/09/02 02:23:29;;;;;;;9.32;5.47;;;;;;;23.37;49.17;99636.97;5113215;28;20539;-75
2023/09/02 02:26:01;;;;;;;12.55;5.40;;;;;;;22.91;50.47;99630.31;5112927;28;20120;-75
2023/09/02 02:28:27;;;;;;;11.43;5.95;;;;;;;23.11;50.24;99644.06;5113079;28;20570;-75
2023/09/02 02:30:53;;;;;;;8.23;5.93;;;;;;;23.13;49.95;99630.97;5112904;28;20084;-75
2023/09/02 02:33:18;;;;;;;12.43;5.95;;;;;;;23.12;50.19;99637.13;5112736;28;20024;-75
2023/09/02 02:35:44;;;;;;;9.23;5.78;;;;;;;23.11;50.26;99644.06;5113097;28;20020;-75
2023/09/02 02:38:09;;;;;;;13.23;5.82;;;;;;;23.05;50.32;99629.44;5094523;28;20026;-75
2023/09/02 02:40:35;;;;;;;21.05;6.13;;;;;;;23.03;50.18;99628.22;5112775;28;20020;-75
2023/09/02 02:43:01;;;;;;;15.88;7.10;;;;;;;23.09;50.31;99630.22;5094463;28;20017;-75
2023/09/02 02:45:27;;;;;;;13.23;5.40;;;;;;;23.01;50.21;99622.91;5095024;28;20022;-75
2023/09/02 02:47:53;;;;;;;10.57;5.63;;;;;;;22.91;50.66;99629.50;5094273;28;20020;-75
2023/09/02 02:50:18;;;;;;;11.50;6.32;;;;;;;22.90;50.54;99633.56;5112200;28;20048;-75
2023/09/02 02:52:44;;;;;;;8.70;6.50;;;;;;;22.93;50.79;99629.91;5112440;28;20107;-75
2023/09/02 02:55:09;;;;;;;6.90;5.43;;;;;;;22.94;50.30;99628.69;5112236;28;20072;-75
2023/09/02 02:57:35;;;;;;;7.82;5.85;;;;;;;23.01;50.29;99620.06;5094173;28;20420;-75
2023/09/02 03:00:00;;;;;;;11.52;6.70;;;;;;;22.97;50.73;99619.28;5111430;28;20040;-75
2023/09/02 03:02:25;;;;;;;14.32;6.57;;;;;;;23.00;50.54;99619.25;5112345;28;20028;-75
2023/09/02 03:04:51;;;;;;;13.98;6.57;;;;;;;23.06;50.70;99628.19;5112596;28;20097;-75
2023/09/02 03:07:18;;;;;;;18.80;6.47;;;;;;;22.83;51.60;99625.88;5094325;28;20073;-75
2023/09/02 03:09:44;;;;;;;12.77;6.15;;;;;;;22.63;51.90;99628.41;5112225;28;20023;-75
2023/09/02 03:12:09;;;;;;;12.77;6.80;;;;;;;22.48;52.47;99627.63;5093738;28;20030;-75
2023/09/02 03:14:34;;;;;;;11.60;6.72;;;;;;;22.12;53.25;99628.56;5111970;28;20023;-75
2023/09/02 03:17:00;;;;;;;9.80;5.70;;;;;;;21.99;53.99;99631.84;5112025;28;20097;-75
2023/09/02 03:19:26;;;;;;;9.48;6.03;;;;;;;21.97;54.07;99634.31;5111966;28;20030;-75
2023/09/02 03:21:51;;;;;;;8.15;6.43;;;;;;;21.21;56.42;99630.63;5111906;28;20028;-75
2023/09/02 03:24:17;;;;;;;11.25;6.72;;;;;;;21.58;55.91;99646.47;5111963;28;20027;-75
2023/09/02 03:26:42;;;;;;;10.80;6.30;;;;;;;21.62;55.36;99635.09;5111735;28;20072;-75
2023/09/02 03:29:08;;;;;;;8.75;6.63;;;;;;;21.28;56.65;99642.81;5093667;28;20118;-75
2023/09/02 03:31:33;;;;;;;6.88;5.63;;;;;;;21.67;55.33;99637.59;5111741;28;20545;-75
2023/09/02 03:33:59;;;;;;;11.63;6.45;;;;;;;21.71;55.42;99647.72;5111687;28;20024;-75
2023/09/02 03:36:24;;;;;;;22.40;7.15;;;;;;;21.78;55.04;99641.25;5093798;28;20020;-75
2023/09/02 03:38:50;;;;;;;13.43;7.03;;;;;;;21.86;54.81;99650.59;5111725;28;20466;-75
2023/09/02 03:41:19;;;;;;;15.38;6.78;;;;;;;21.98;54.39;99655.84;5111622;28;20104;-75
2023/09/02 03:43:45;;;;;;;17.08;7.50;;;;;;;21.57;55.62;99659.91;5111796;28;20026;-75
2023/09/02 03:46:11;;;;;;;13.80;7.10;;;;;;;21.40;56.82;99658.69;5111496;28;20027;-75
2023/09/02 03:48:36;;;;;;;7.88;6.53;;;;;;;21.82;55.47;99661.16;5111548;28;20032;-75
2023/09/02 03:51:16;;;;;;;18.23;7.03;;;;;;;21.83;55.63;99657.06;5111572;28;20034;-75
2023/09/02 03:53:42;;;;;;;21.13;8.20;;;;;;;21.86;55.87;99662.78;5111471;28;20024;-75
2023/09/02 03:56:08;;;;;;;36.83;8.32;;;;;;;21.38;57.41;99657.44;5112063;28;20020;-75
2023/09/02 03:58:34;;;;;;;70.57;12.52;;;;;;;20.68;60.38;99656.44;5111357;28;20496;-75
2023/09/02 04:01:00;;;;;;;63.75;13.00;;;;;;;21.14;58.84;99655.00;5111381;28;20078;-75
2023/09/02 04:03:27;;;;;;;89.78;12.30;;;;;;;21.05;58.78;99654.56;5093770;28;20111;-75
2023/09/02 04:05:53;;;;;;;98.30;14.65;;;;;;;21.14;58.60;99663.53;5111313;28;20460;-75
2023/09/02 04:08:21;;;;;;;94.40;13.73;;;;;;;21.53;57.42;99663.97;5111457;28;20080;-75
2023/09/02 04:10:52;;;;;;;71.28;11.25;;;;;;;21.76;56.89;99671.34;5094291;28;20541;-75
2023/09/02 04:13:21;;;;;;;77.10;12.43;;;;;;;21.87;56.41;99675.00;5115549;28;20039;-75
2023/09/02 04:15:46;;;;;;;97.03;14.53;;;;;;;21.87;56.58;99666.44;5115609;28;20027;-75
2023/09/02 04:18:12;;;;;;;90.45;14.70;;;;;;;21.91;56.57;99672.94;5115431;28;20389;-75
2023/09/02 04:20:38;;;;;;;105.80;17.23;;;;;;;21.97;55.89;99665.63;5115484;28;20023;-75
2023/09/02 04:23:03;;;;;;;134.18;16.58;;;;;;;21.78;56.80;99669.72;5097075;28;20015;-75
2023/09/02 04:25:29;;;;;;;105.75;15.60;;;;;;;21.92;56.10;99676.63;5115312;28;20028;-75
2023/09/02 04:27:54;;;;;;;98.35;14.18;;;;;;;22.16;55.43;99669.25;5115584;28;20023;-75
2023/09/02 04:30:22;;;;;;;112.70;16.75;;;;;;;22.39;55.12;99673.66;5097031;28;20019;-75
2023/09/02 04:32:49;;;;;;;98.88;16.27;;;;;;;22.46;54.68;99679.34;5115088;28;20511;-75
2023/09/02 04:35:14;;;;;;;100.90;14.82;;;;;;;22.61;54.42;99677.28;5115155;28;20030;-75
2023/09/02 04:37:40;;;;;;;74.40;12.27;;;;;;;22.73;53.99;99681.72;5096810;28;20099;-75
2023/09/02 04:40:06;;;;;;;75.60;11.63;;;;;;;22.64;53.34;99676.47;5115135;28;20019;-75
2023/09/02 04:42:32;;;;;;;54.47;10.90;;;;;;;22.85;53.11;99689.81;5115073;28;20038;-75
2023/09/02 04:44:58;;;;;;;69.38;12.60;;;;;;;22.86;54.56;99685.72;5114995;28;20019;-75
2023/09/02 04:47:23;;;;;;;90.00;13.10;;;;;;;22.76;54.37;99685.78;5114835;28;20034;-75
2023/09/02 04:49:49;;;;;;;69.78;11.73;;;;;;;22.81;54.23;99683.31;5114870;28;20020;-75
2023/09/02 04:52:15;;;;;;;57.15;9.98;;;;;;;22.99;53.95;99688.94;5114816;28;20024;-75
2023/09/02 04:54:44;;;;;;;42.95;9.60;;;;;;;22.70;53.71;99693.97;5114822;28;20023;-75
2023/09/02 04:57:09;;;;;;;18.23;8.85;;;;;;;22.54;53.93;99683.81;5114639;28;20055;-75
2023/09/02 04:59:35;;;;;;;18.90;8.13;;;;;;;22.98;53.12;99690.16;5114842;28;20079;-75
2023/09/02 05:02:00;;;;;;;29.58;10.40;;;;;;;22.48;54.69;99691.19;5114602;28;20035;-75
2023/09/02 05:04:26;;;;;;;21.75;10.73;;;;;;;22.20;56.60;99709.13;5114699;28;20020;-75
2023/09/02 05:06:51;;;;;;;26.33;11.60;;;;;;;22.33;55.86;99695.28;5114478;28;20024;-74
2023/09/02 05:09:16;;;;;;;22.90;12.10;;;;;;;22.42;55.58;99707.03;5114556;28;20031;-74
2023/09/02 05:11:42;;;;;;;34.20;14.20;;;;;;;22.42;55.76;99701.31;5114382;28;20504;-74
2023/09/02 05:14:07;;;;;;;28.02;11.10;;;;;;;22.76;54.78;99698.00;5096119;28;20492;-74
2023/09/02 05:16:33;;;;;;;23.58;11.93;;;;;;;23.10;53.53;99703.13;5114380;28;20023;-74
2023/09/02 05:18:58;;;;;;;17.42;8.05;;;;;;;23.39;52.48;99694.41;5114424;28;20027;-74
2023/09/02 05:21:24;;;;;;;16.25;7.50;;;;;;;23.38;52.52;99704.22;5114189;28;20020;-74
2023/09/02 05:23:49;;;;;;;11.30;7.18;;;;;;;23.65;51.42;99705.66;5095063;28;20038;-74
2023/09/02 05:26:15;;;;;;;14.88;7.22;;;;;;;23.87;51.03;99702.66;5114265;28;20043;-75
2023/09/02 05:28:40;;;;;;;16.65;7.40;;;;;;;24.01;50.98;99704.53;5095791;28;20037;-75
2023/09/02 05:31:06;;;;;;;14.10;7.07;;;;;;;24.25;50.35;99700.69;5114239;28;20023;-74
2023/09/02 05:33:31;;;;;;;18.33;7.57;;;;;;;24.12;50.12;99705.28;5113797;28;20019;-74
2023/09/02 05:35:56;;;;;;;17.15;7.80;;;;;;;24.04;49.91;99706.63;5114622;28;20561;-74
2023/09/02 05:38:22;;;;;;;9.85;7.18;;;;;;;23.98;48.56;99692.75;5113960;28;20605;-75
2023/09/02 05:40:47;;;;;;;7.28;6.50;;;;;;;24.40;48.97;99697.69;5113950;28;20567;-75
2023/09/02 05:43:13;;;;;;;12.23;7.07;;;;;;;24.52;48.50;99699.16;5113824;28;20073;-75
2023/09/02 05:45:38;;;;;;;10.52;5.85;;;;;;;24.53;47.40;99707.34;5113868;28;20023;-74
2023/09/02 05:48:04;;;;;;;10.43;6.15;;;;;;;24.76;46.66;99707.88;5113667;28;20011;-75
2023/09/02 05:50:30;;;;;;;10.07;6.28;;;;;;;24.78;46.07;99702.56;5113696;28;20023;-74
2023/09/02 05:52:55;;;;;;;12.80;5.55;;;;;;;25.07;45.59;99714.44;5095281;28;20030;-75
2023/09/02 05:55:21;;;;;;;17.95;6.95;;;;;;;25.17;44.95;99714.75;5113686;28;20050;-75
2023/09/02 05:57:46;;;;;;;10.18;6.13;;;;;;;25.33;44.75;99716.97;5113320;28;20070;-75
2023/09/02 06:00:12;;;;;;;17.15;7.05;;;;;;;25.47;44.29;99716.75;5113694;28;20096;-75
2023/09/02 06:02:38;;;;;;;14.13;7.68;;;;;;;25.37;45.19;99712.81;5114124;28;20024;-75
2023/09/02 06:05:04;;;;;;;11.00;7.28;;;;;;;25.42;44.48;99725.03;5095155;28;20030;-75
2023/09/02 06:07:30;;;;;;;9.88;6.95;;;;;;;25.56;45.42;99729.75;5095044;28;20020;-74
2023/09/02 06:09:55;;;;;;;10.40;6.13;;;;;;;25.55;45.72;99728.16;5113391;28;20016;-75
2023/09/02 06:12:21;;;;;;;10.60;6.75;;;;;;;25.50;46.44;99727.38;5113331;28;20457;-75
2023/09/02 06:14:47;;;;;;;14.85;7.32;;;;;;;25.58;45.99;99742.41;5113253;28;20024;-75
2023/09/02 06:17:13;;;;;;;10.25;5.78;;;;;;;25.55;44.60;99737.53;5094860;28;20019;-75
2023/09/02 06:19:38;;;;;;;9.27;5.63;;;;;;;25.81;44.43;99740.00;5113242;28;20029;-75
2023/09/02 06:22:04;;;;;;;9.48;7.00;;;;;;;25.82;44.92;99748.16;5094781;28;20016;-75
2023/09/02 06:24:29;;;;;;;10.07;6.35;;;;;;;25.92;45.15;99746.38;5113055;28;20026;-73
2023/09/02 06:26:55;;;;;;;11.93;7.32;;;;;;;25.32;46.17;99744.78;5094790;28;20077;-72
2023/09/02 06:29:20;;;;;;;18.40;6.97;;;;;;;25.24;46.38;99737.56;5113044;28;20031;-75
2023/09/02 06:31:46;;;;;;;12.95;7.00;;;;;;;25.37;45.89;99744.31;5094635;28;20027;-75
2023/09/02 06:34:12;;;;;;;12.20;7.85;;;;;;;25.39;46.24;99741.00;5094215;28;20411;-75
2023/09/02 06:36:37;;;;;;;14.65;7.65;;;;;;;25.45;45.65;99744.19;5112843;28;20023;-75
2023/09/02 06:39:04;;;;;;;40.97;9.50;;;;;;;25.55;45.95;99737.53;5094519;28;20019;-72
2023/09/02 06:41:30;;;;;;;23.88;8.18;;;;;;;25.57;44.71;99742.84;5112821;28;20023;-73
2023/09/02 06:43:55;;;;;;;14.75;6.45;;;;;;;25.91;45.02;99736.97;5112703;28;20027;-73
2023/09/02 06:46:21;;;;;;;16.70;6.78;;;;;;;25.65;43.81;99741.50;5112698;28;20015;-74
2023/09/02 06:48:47;;;;;;;25.77;7.50;;;;;;;25.53;44.01;99744.97;5112375;28;20023;-73
2023/09/02 06:51:13;;;;;;;16.48;5.97;;;;;;;25.78;43.65;99751.09;5094312;28;20032;-73
2023/09/02 06:53:43;;;;;;;9.82;5.38;;;;;;;26.13;43.52;99750.13;5112358;28;20032;-73
2023/09/02 06:56:09;;;;;;;11.40;6.30;;;;;;;26.16;42.68;99741.47;5112650;28;20117;-73
2023/09/02 06:58:39;;;;;;;15.82;6.18;;;;;;;26.18;42.61;99743.91;5111969;28;20043;-73
2023/09/02 07:01:05;;;;;;;16.35;7.03;;;;;;;26.01;42.33;99749.50;5112490;28;20037;-73
2023/09/02 07:03:30;;;;;;;13.68;6.25;;;;;;;26.02;42.65;99751.13;5093910;28;20500;-73
2023/09/02 07:06:06;;;;;;;12.35;5.55;;;;;;;26.13;43.73;99748.06;5094107;28;20058;-73
2023/09/02 07:08:32;;;;;;;19.35;5.13;;;;;;;26.47;41.98;99757.72;5093850;28;20106;-74
2023/09/02 07:10:58;;;;;;;8.23;5.15;;;;;;;26.75;41.75;99759.25;5112173;28;20026;-74
2023/09/02 07:13:23;;;;;;;7.22;5.28;;;;;;;26.47;41.41;99752.81;5093703;28;20421;-74
2023/09/02 07:16:01;;;;;;;8.57;5.55;;;;;;;26.88;42.22;99752.88;5093867;28;20020;-75
2023/09/02 07:18:27;;;;;;;6.32;5.57;;;;;;;26.90;40.51;99742.59;5111982;28;20096;-75
2023/09/02 07:20:57;;;;;;;6.57;5.22;;;;;;;26.91;40.33;99749.16;5093824;28;20102;-74
2023/09/02 07:23:23;;;;;;;10.77;4.55;;;;;;;27.10;40.61;99749.56;5111900;28;20019;-75
2023/09/02 07:25:48;;;;;;;8.57;3.90;;;;;;;27.17;39.97;99752.28;5093624;28;20020;-75
2023/09/02 07:28:14;;;;;;;6.63;4.10;;;;;;;27.25;40.16;99745.13;5111781;28;20020;-75
2023/09/02 07:30:39;;;;;;;6.85;4.10;;;;;;;27.42;40.28;99745.19;5111902;28;20168;-74
2023/09/02 07:33:04;;;;;;;12.23;3.83;;;;;;;27.54;39.22;99743.69;5093501;28;20023;-75
2023/09/02 07:35:36;;;;;;;6.43;3.67;;;;;;;27.73;38.97;99747.75;5111604;28;20027;-75
2023/09/02 07:38:02;;;;;;;8.38;4.15;;;;;;;27.79;39.69;99740.25;5111762;28;20020;-75
2023/09/02 07:40:28;;;;;;;7.63;4.15;;;;;;;27.50;38.54;99746.63;5111608;28;20389;-75
2023/09/02 07:42:53;;;;;;;5.32;3.72;;;;;;;27.83;39.54;99734.41;5111657;28;20022;-75
2023/09/02 07:45:19;;;;;;;7.57;3.95;;;;;;;28.03;37.66;99735.09;5111008;28;20035;-74
2023/09/02 07:47:44;;;;;;;5.00;4.07;;;;;;;28.16;37.75;99745.88;5111592;28;20023;-74
2023/09/02 07:50:09;;;;;;;11.43;4.53;;;;;;;28.19;37.63;99744.22;5111368;28;20026;-74
2023/09/02 07:52:35;;;;;;;7.85;4.20;;;;;;;28.24;36.97;99735.06;5093035;28;20024;-74
2023/09/02 07:55:00;;;;;;;5.60;3.90;;;;;;;28.41;37.57;99735.81;5111411;28;20031;-74
2023/09/02 07:57:26;;;;;;;8.00;4.40;;;;;;;28.59;36.67;99738.19;5093260;28;20024;-74
2023/09/02 07:59:51;;;;;;;5.40;4.03;;;;;;;28.63;37.34;99741.78;5111396;28;20047;-74
2023/09/02 08:02:17;;;;;;;5.18;3.75;;;;;;;28.77;37.39;99737.69;5093244;28;20026;-74
2023/09/02 08:04:42;;;;;;;5.93;4.10;;;;;;;28.88;36.68;99748.13;5111384;28;20031;-74
2023/09/02 08:07:08;;;;;;;5.72;3.50;;;;;;;28.91;36.61;99736.50;5093141;28;20030;-75
2023/09/02 08:09:33;;;;;;;5.80;4.25;;;;;;;29.02;36.54;99744.03;5093008;28;20031;-75
2023/09/02 08:11:59;;;;;;;6.90;4.90;;;;;;;29.02;36.44;99744.03;5093046;28;20027;-75
2023/09/02 08:14:24;;;;;;;5.10;4.05;;;;;;;29.01;36.34;99743.19;5092920;28;20024;-74
2023/09/02 08:16:50;;;;;;;6.65;3.80;;;;;;;29.05;36.43;99749.69;5111458;28;20028;-75
2023/09/02 08:19:15;;;;;;;4.78;3.58;;;;;;;29.22;36.62;99740.94;5093120;28;20023;-75
2023/09/02 08:21:41;;;;;;;8.30;5.20;;;;;;;29.39;35.89;99744.53;5111269;28;20072;-75
2023/09/02 08:24:06;;;;;;;12.77;8.40;;;;;;;29.33;36.26;99732.00;5092939;28;20430;-75
2023/09/02 08:26:32;;;;;;;6.03;3.50;;;;;;;29.13;35.72;99733.00;5092964;28;20019;-75
2023/09/02 08:28:57;;;;;;;12.40;5.82;;;;;;;29.18;36.10;99738.19;5093117;28;20038;-75
2023/09/02 08:31:23;;;;;;;4.35;3.58;;;;;;;29.15;35.18;99733.34;5111255;28;20572;-74
2023/09/02 08:33:49;;;;;;;18.52;6.03;;;;;;;29.39;35.68;99747.44;5092911;28;20110;-75
2023/09/02 08:36:15;;;;;;;7.55;3.63;;;;;;;29.45;34.88;99733.28;5092874;28;20061;-75
2023/09/02 08:38:44;;;;;;;4.63;3.70;;;;;;;29.55;35.08;99729.28;5111160;28;20080;-75
2023/09/02 08:41:25;;;;;;;7.82;3.67;;;;;;;29.50;34.77;99730.66;5092898;28;20064;-76
2023/09/02 08:43:53;;;;;;;9.25;3.75;;;;;;;29.52;35.24;99739.63;5092796;28;20026;-75
2023/09/02 08:46:20;;;;;;;11.52;3.40;;;;;;;29.69;35.09;99723.03;5092709;28;20409;-75
2023/09/02 08:48:47;;;;;;;8.20;3.72;;;;;;;30.00;34.13;99744.69;5111050;28;20015;-76
2023/09/02 08:51:14;;;;;;;11.00;4.40;;;;;;;30.08;34.60;99734.56;5110870;28;20035;-76
2023/09/02 08:53:40;;;;;;;5.13;3.78;;;;;;;30.09;34.22;99744.81;5111025;28;20047;-75
2023/09/02 08:56:08;;;;;;;6.32;3.85;;;;;;;30.31;34.05;99738.31;5092719;28;20030;-75
2023/09/02 08:58:34;;;;;;;5.00;4.10;;;;;;;30.44;32.83;99735.38;5113549;28;20523;-75
2023/09/02 09:01:01;;;;;;;4.72;3.83;;;;;;;30.46;33.77;99744.34;5114679;28;20549;-76
2023/09/02 09:03:29;;;;;;;6.60;4.28;;;;;;;30.20;33.46;99735.78;5114665;28;20019;-76
2023/09/02 09:05:57;;;;;;;6.78;3.97;;;;;;;30.50;33.90;99726.91;5114657;28;20027;-75
2023/09/02 09:08:24;;;;;;;5.28;4.07;;;;;;;30.82;33.03;99731.53;5096308;28;20024;-75
2023/09/02 09:10:50;;;;;;;5.75;4.28;;;;;;;30.55;32.33;99723.44;5096162;28;20031;-76
2023/09/02 09:13:18;;;;;;;4.15;3.28;;;;;;;30.69;32.05;99725.03;5114601;28;20095;-75
2023/09/02 09:15:46;;;;;;;6.05;3.83;;;;;;;30.50;31.60;99721.16;5096021;28;20027;-75
2023/09/02 09:18:12;;;;;;;7.80;3.65;;;;;;;30.71;31.85;99713.00;5096134;28;20027;-75
2023/09/02 09:20:39;;;;;;;15.27;6.65;;;;;;;30.82;32.00;99714.22;5114332;28;20023;-76
2023/09/02 09:23:10;;;;;;;17.55;10.30;;;;;;;31.01;31.89;99727.97;5095977;28;20020;-76
2023/09/02 09:25:36;;;;;;;13.45;7.25;;;;;;;31.08;31.73;99713.25;5114209;28;20015;-76
2023/09/02 09:28:12;;;;;;;5.97;4.18;;;;;;;31.27;31.38;99710.53;5095909;28;20488;-76
2023/09/02 09:30:38;;;;;;;5.97;4.10;;;;;;;31.27;32.00;99713.41;5095841;28;20024;-76
2023/09/02 09:33:05;;;;;;;6.72;3.22;;;;;;;31.40;31.46;99714.13;5114102;28;20055;-76
2023/09/02 09:35:35;;;;;;;19.15;5.35;;;;;;;31.36;31.50;99707.66;5114046;28;20163;-75
2023/09/02 09:38:05;;;;;;;9.98;4.00;;;;;;;31.41;31.00;99707.06;5095707;28;20024;-76
2023/09/02 09:40:32;;;;;;;4.35;3.72;;;;;;;31.31;30.80;99708.28;5095427;28;20027;-75
2023/09/02 09:43:02;;;;;;;3.83;2.97;;;;;;;31.52;30.41;99697.94;5114979;28;20011;-75
2023/09/02 09:45:29;;;;;;;7.80;3.70;;;;;;;31.49;30.45;99693.91;5113834;28;20012;-75
2023/09/02 09:48:08;;;;;;;3.60;2.92;;;;;;;31.52;30.57;99692.16;5095530;28;20046;-75
2023/09/02 09:50:33;;;;;;;4.43;3.42;;;;;;;31.70;29.75;99694.31;5113637;28;20491;-75
2023/09/02 09:53:09;;;;;;;9.45;3.83;;;;;;;31.99;30.22;99690.25;5113609;28;20024;-75
2023/09/02 09:55:36;;;;;;;8.23;3.10;;;;;;;31.62;29.70;99693.00;5095835;28;20047;-75
2023/09/02 09:58:01;;;;;;;3.78;3.28;;;;;;;31.70;29.81;99691.41;5113566;28;20039;-75
2023/09/02 10:00:28;;;;;;;10.38;3.65;;;;;;;31.66;28.57;99693.66;5113550;28;20026;-75
2023/09/02 10:02:56;;;;;;;5.57;3.47;;;;;;;31.60;28.97;99693.47;5095311;28;20171;-75
2023/09/02 10:05:27;;;;;;;11.05;5.03;;;;;;;31.76;28.55;99692.41;5113410;28;20433;-75
2023/09/02 10:08:01;;;;;;;7.90;3.13;;;;;;;31.79;28.64;99682.81;5113329;28;20462;-75
2023/09/02 10:10:32;;;;;;;6.90;3.45;;;;;;;31.89;29.56;99685.72;5095149;28;20030;-75
2023/09/02 10:12:58;;;;;;;15.95;4.15;;;;;;;31.99;29.12;99683.66;5113307;28;20458;-75
2023/09/02 10:15:25;;;;;;;8.95;3.58;;;;;;;31.99;28.77;99693.13;5113216;28;20119;-75
2023/09/02 10:18:01;;;;;;;4.32;3.80;;;;;;;32.06;28.61;99677.56;5095039;28;20051;-76
2023/09/02 10:20:29;;;;;;;5.03;3.28;;;;;;;31.99;27.95;99678.69;5113349;28;20487;-76
2023/09/02 10:23:05;;;;;;;10.52;3.00;;;;;;;32.03;28.19;99685.09;5113080;28;20024;-76
2023/09/02 10:26:11;;;;;;;12.27;3.42;;;;;;;32.38;27.51;99680.34;5094865;28;20016;-76
2023/09/02 10:28:38;;;;;;;4.57;3.70;;;;;;;32.15;27.85;99668.88;5112362;28;20027;-76
2023/09/02 10:31:21;;;;;;;3.95;3.40;;;;;;;32.37;27.95;99676.63;5112900;28;20020;-76
2023/09/02 10:34:16;;;;;;;7.72;3.30;;;;;;;32.49;28.45;99669.88;5112890;28;20077;-76
2023/09/02 10:36:48;;;;;;;5.03;3.28;;;;;;;32.45;27.43;99662.66;5087065;28;20119;-76
2023/09/02 10:39:31;;;;;;;7.43;3.15;;;;;;;32.57;28.95;99655.88;5112911;28;20023;-76
2023/09/02 10:41:59;;;;;;;6.18;3.63;;;;;;;32.73;27.88;99662.63;5112769;28;20024;-76
2023/09/02 10:44:25;;;;;;;7.15;3.25;;;;;;;33.04;27.47;99668.22;5094737;28;20107;-76
2023/09/02 10:46:53;;;;;;;4.90;3.28;;;;;;;32.99;26.56;99665.97;5094308;28;20023;-76
2023/09/02 10:49:19;;;;;;;3.42;3.13;;;;;;;33.04;27.35;99659.53;5112588;28;20094;-76
2023/09/02 10:51:46;;;;;;;4.00;3.58;;;;;;;32.97;27.21;99661.97;5112561;28;20076;-76
2023/09/02 10:54:11;;;;;;;9.93;3.53;;;;;;;33.17;27.45;99665.09;5112796;28;20024;-76
2023/09/02 10:56:37;;;;;;;7.63;3.72;;;;;;;33.33;26.65;99663.13;5094153;28;20537;-76
2023/09/02 10:59:04;;;;;;;4.07;3.67;;;;;;;33.44;26.14;99657.59;5093957;28;20628;-76
2023/09/02 11:01:46;;;;;;;9.80;3.10;;;;;;;32.95;26.79;99652.97;5094060;28;20055;-76
2023/09/02 11:04:12;;;;;;;11.68;3.60;;;;;;;33.33;26.58;99651.53;5112329;28;20016;-76
2023/09/02 11:07:16;;;;;;;6.18;3.45;;;;;;;33.31;26.73;99651.22;5112309;28;20034;-76
2023/09/02 11:09:51;;;;;;;5.95;3.25;;;;;;;33.25;26.29;99644.47;5112080;28;20028;-76
2023/09/02 11:12:17;;;;;;;5.78;3.63;;;;;;;33.43;25.98;99635.72;5093769;28;20027;-76
2023/09/02 11:15:08;;;;;;;6.03;3.50;;;;;;;33.62;25.57;99646.44;5093763;28;20081;-76
2023/09/02 11:17:35;;;;;;;8.30;3.70;;;;;;;33.73;25.30;99643.78;5111958;28;20110;-76
2023/09/02 11:20:05;;;;;;;4.20;3.78;;;;;;;33.71;25.65;99650.06;5093063;28;20076;-76
2023/09/02 11:22:49;;;;;;;;;;;;;;;33.36;25.58;99641.84;5112482;28;20019;-76
2023/09/02 11:25:32;;;;;;;7.05;3.80;;;;;;;33.35;25.61;99639.44;5093772;28;19908;-76
2023/09/02 11:28:26;;;;;;;5.47;3.88;;;;;;;33.31;25.32;99639.63;5111861;28;20029;-76
2023/09/02 11:31:29;;;;;;;8.68;4.15;;;;;;;33.39;25.05;99642.97;5082984;28;20103;-76